createdAt,value
2023-02-11T00:01:27.975Z,11.52
2023-02-11T00:03:56.054Z,11.52
2023-02-11T00:06:24.685Z,11.57
2023-02-11T00:08:52.291Z,11.20
2023-02-11T00:11:21.374Z,11.00
2023-02-11T00:13:48.778Z,11.63
2023-02-11T00:16:19.945Z,11.60
2023-02-11T00:18:47.659Z,11.30
2023-02-11T00:21:20.349Z,11.70
2023-02-11T00:23:48.117Z,10.80
2023-02-11T00:26:27.060Z,11.38
2023-02-11T00:28:54.866Z,10.68
2023-02-11T00:31:24.130Z,11.27
2023-02-11T00:33:51.765Z,10.70
2023-02-11T00:36:28.634Z,11.30
2023-02-11T00:38:57.864Z,11.82
2023-02-11T00:41:26.069Z,11.30
2023-02-11T00:43:53.469Z,11.70
2023-02-11T00:46:21.574Z,10.85
2023-02-11T00:48:49.486Z,11.23
2023-02-11T00:51:16.981Z,10.95
2023-02-11T00:53:44.286Z,11.15
2023-02-11T00:56:11.597Z,11.68
2023-02-11T00:58:38.911Z,12.00
2023-02-11T01:01:06.795Z,12.15
2023-02-11T01:03:34.808Z,12.27
2023-02-11T01:06:06.448Z,11.80
2023-02-11T01:08:34.049Z,12.27
2023-02-11T01:11:05.523Z,11.55
2023-02-11T01:13:37.126Z,11.95
2023-02-11T01:16:07.546Z,12.68
2023-02-11T01:18:35.308Z,12.68
2023-02-11T01:21:02.724Z,12.00
2023-02-11T01:23:30.184Z,11.15
2023-02-11T01:25:57.681Z,10.90
2023-02-11T01:28:27.982Z,11.88
2023-02-11T01:30:59.073Z,11.18
2023-02-11T01:33:26.456Z,11.60
2023-02-11T01:35:53.885Z,12.30
2023-02-11T01:38:24.571Z,11.70
2023-02-11T01:41:00.016Z,12.00
2023-02-11T01:43:31.138Z,11.88
2023-02-11T01:48:43.777Z,11.70
2023-02-11T01:51:19.287Z,11.43
2023-02-11T01:54:08.243Z,11.93
2023-02-11T01:56:58.194Z,11.48
2023-02-11T01:59:40.940Z,11.50
2023-02-11T02:02:11.847Z,11.45
2023-02-11T02:04:46.512Z,10.70
2023-02-11T02:07:32.574Z,11.98
2023-02-11T02:10:05.917Z,10.57
2023-02-11T02:12:33.757Z,12.48
2023-02-11T02:15:25.614Z,12.07
2023-02-11T02:18:31.890Z,12.48
2023-02-11T02:21:24.080Z,10.95
2023-02-11T02:24:31.324Z,12.50
2023-02-11T02:27:10.477Z,10.80
2023-02-11T02:30:17.545Z,10.60
2023-02-11T02:33:16.681Z,11.50
2023-02-11T02:36:04.383Z,11.38
2023-02-11T02:38:37.858Z,11.80
2023-02-11T02:41:11.810Z,11.30
2023-02-11T02:43:45.124Z,11.07
2023-02-11T02:46:16.643Z,11.35
2023-02-11T02:48:46.709Z,11.52
2023-02-11T02:51:43.007Z,12.90
2023-02-11T02:54:41.045Z,11.40
2023-02-11T02:57:40.703Z,11.05
2023-02-11T03:00:49.357Z,11.43
2023-02-11T03:03:47.290Z,11.90
2023-02-11T03:06:51.407Z,13.93
2023-02-11T03:09:44.061Z,12.35
2023-02-11T03:12:13.664Z,12.63
2023-02-11T03:14:42.062Z,12.48
2023-02-11T03:17:10.411Z,13.07
2023-02-11T03:19:41.090Z,13.55
2023-02-11T03:22:17.260Z,14.13
2023-02-11T03:24:45.318Z,13.73
2023-02-11T03:27:29.084Z,13.02
2023-02-11T03:30:00.101Z,14.93
2023-02-11T03:32:32.812Z,12.98
2023-02-11T03:35:07.775Z,13.70
2023-02-11T03:37:43.668Z,14.68
2023-02-11T03:40:19.217Z,15.25
2023-02-11T03:42:52.687Z,14.18
2023-02-11T03:45:22.876Z,14.75
2023-02-11T03:47:56.221Z,15.10
2023-02-11T03:50:25.963Z,14.65
2023-02-11T03:52:54.476Z,17.38
2023-02-11T03:55:25.923Z,15.50
2023-02-11T03:57:53.349Z,14.18
2023-02-11T04:00:20.842Z,17.25
2023-02-11T04:02:48.179Z,12.95
2023-02-11T04:05:16.442Z,14.00
2023-02-11T04:07:43.719Z,14.65
2023-02-11T04:10:12.427Z,14.18
2023-02-11T04:12:39.817Z,14.75
2023-02-11T04:15:07.871Z,15.82
2023-02-11T04:17:35.433Z,15.50
2023-02-11T04:20:03.490Z,17.08
2023-02-11T04:22:31.267Z,15.50
2023-02-11T04:24:58.709Z,15.68
2023-02-11T04:27:26.121Z,16.02
2023-02-11T04:29:54.397Z,16.50
2023-02-11T04:32:21.783Z,18.30
2023-02-11T04:34:49.213Z,16.65
2023-02-11T04:37:16.527Z,19.08
2023-02-11T04:39:43.849Z,22.40
2023-02-11T04:42:11.323Z,19.67
2023-02-11T04:44:38.881Z,21.55
2023-02-11T04:47:06.857Z,16.52
2023-02-11T04:49:37.203Z,16.73
2023-02-11T04:52:05.099Z,16.77
2023-02-11T04:54:32.487Z,17.77
2023-02-11T04:56:59.826Z,18.92
2023-02-11T04:59:27.464Z,18.52
2023-02-11T05:01:55.953Z,18.75
2023-02-11T05:04:23.693Z,17.98
2023-02-11T05:06:51.063Z,17.75
2023-02-11T05:09:18.494Z,18.05
2023-02-11T05:11:45.944Z,16.52
2023-02-11T05:14:13.301Z,17.25
2023-02-11T05:16:40.723Z,17.15
2023-02-11T05:19:08.078Z,16.48
2023-02-11T05:21:36.591Z,17.20
2023-02-11T05:24:04.339Z,16.30
2023-02-11T05:26:32.444Z,15.85
2023-02-11T05:28:59.998Z,15.98
2023-02-11T05:31:27.454Z,16.35
2023-02-11T05:33:54.743Z,16.40
2023-02-11T05:36:22.128Z,16.90
2023-02-11T05:38:50.661Z,16.67
2023-02-11T05:41:18.025Z,17.10
2023-02-11T05:43:47.671Z,16.42
2023-02-11T05:46:15.015Z,14.90
2023-02-11T05:48:42.362Z,16.05
2023-02-11T05:51:09.709Z,15.73
2023-02-11T05:53:37.159Z,16.52
2023-02-11T05:56:07.387Z,16.38
2023-02-11T05:58:34.744Z,17.13
2023-02-11T06:01:02.154Z,15.75
2023-02-11T06:03:29.501Z,16.25
2023-02-11T06:05:56.843Z,15.45
2023-02-11T06:08:24.214Z,15.05
2023-02-11T06:10:51.607Z,16.20
2023-02-11T06:13:19.785Z,17.35
2023-02-11T06:15:56.372Z,15.98
2023-02-11T06:18:24.110Z,16.60
2023-02-11T06:20:51.512Z,16.42
2023-02-11T06:23:18.895Z,16.35
2023-02-11T06:25:46.270Z,15.50
2023-02-11T06:28:13.681Z,15.15
2023-02-11T06:30:41.733Z,15.85
2023-02-11T06:33:09.096Z,16.15
2023-02-11T06:35:39.003Z,15.60
2023-02-11T06:38:06.292Z,15.50
2023-02-11T06:40:33.733Z,15.73
2023-02-11T06:43:01.061Z,16.02
2023-02-11T06:45:28.498Z,17.23
2023-02-11T06:47:55.792Z,16.40
2023-02-11T06:50:23.202Z,17.73
2023-02-11T06:52:50.486Z,15.95
2023-02-11T06:55:17.895Z,16.20
2023-02-11T06:57:45.284Z,17.70
2023-02-11T07:00:13.475Z,17.98
2023-02-11T07:02:40.810Z,19.20
2023-02-11T07:05:08.673Z,20.60
2023-02-11T07:07:37.096Z,19.02
2023-02-11T07:10:05.821Z,19.83
2023-02-11T07:12:33.142Z,21.05
2023-02-11T07:15:00.608Z,20.65
2023-02-11T07:17:27.981Z,23.40
2023-02-11T07:19:55.410Z,22.35
2023-02-11T07:22:22.849Z,23.33
2023-02-11T07:24:50.537Z,22.38
2023-02-11T07:27:20.720Z,23.60
2023-02-11T07:29:48.757Z,22.83
2023-02-11T07:32:16.246Z,23.63
2023-02-11T07:34:43.619Z,23.23
2023-02-11T07:37:10.977Z,24.33
2023-02-11T07:39:38.416Z,23.83
2023-02-11T07:42:06.017Z,24.50
2023-02-11T07:44:33.419Z,24.48
2023-02-11T07:47:00.881Z,23.88
2023-02-11T07:49:28.718Z,23.33
2023-02-11T07:51:56.010Z,23.17
2023-02-11T07:54:23.408Z,24.15
2023-02-11T07:56:50.840Z,24.58
2023-02-11T07:59:18.389Z,23.85
2023-02-11T08:01:45.854Z,25.05
2023-02-11T08:04:13.277Z,26.98
2023-02-11T08:06:42.930Z,26.52
2023-02-11T08:09:16.905Z,25.38
2023-02-11T08:11:44.793Z,25.77
2023-02-11T08:14:12.417Z,24.30
2023-02-11T08:16:39.975Z,23.15
2023-02-11T08:19:11.833Z,22.10
2023-02-11T08:21:40.268Z,18.67
2023-02-11T08:24:07.899Z,18.13
2023-02-11T08:26:35.980Z,18.42
2023-02-11T08:29:10.670Z,19.45
2023-02-11T08:31:41.083Z,19.92
2023-02-11T08:34:11.623Z,19.73
2023-02-11T08:36:40.606Z,17.90
2023-02-11T08:39:19.291Z,18.40
2023-02-11T08:41:49.489Z,18.90
2023-02-11T08:44:18.548Z,17.55
2023-02-11T08:46:46.135Z,18.13
2023-02-11T08:49:14.200Z,16.02
2023-02-11T08:51:41.864Z,16.27
2023-02-11T08:54:10.044Z,18.15
2023-02-11T08:56:38.658Z,19.75
2023-02-11T08:59:07.224Z,20.63
2023-02-11T09:01:35.005Z,19.08
2023-02-11T09:04:02.499Z,20.65
2023-02-11T09:06:29.929Z,18.95
2023-02-11T09:08:58.261Z,20.27
2023-02-11T09:11:35.778Z,19.52
2023-02-11T09:14:04.761Z,21.20
2023-02-11T09:16:35.755Z,21.60
2023-02-11T09:19:04.803Z,21.45
2023-02-11T09:21:33.062Z,19.88
2023-02-11T09:24:00.610Z,20.42
2023-02-11T09:26:32.785Z,21.15
2023-02-11T09:29:01.155Z,19.23
2023-02-11T09:31:30.663Z,20.30
2023-02-11T09:34:01.851Z,20.08
2023-02-11T09:36:31.728Z,19.13
2023-02-11T09:39:00.940Z,17.58
2023-02-11T09:41:58.502Z,18.65
2023-02-11T09:44:29.476Z,17.33
2023-02-11T09:47:00.363Z,18.65
2023-02-11T09:49:47.616Z,18.13
2023-02-11T09:52:33.314Z,18.55
2023-02-11T09:55:03.245Z,19.58
2023-02-11T09:57:36.514Z,20.50
2023-02-11T10:00:18.781Z,19.05
2023-02-11T10:05:43.159Z,18.45
2023-02-11T10:08:21.288Z,18.98
2023-02-11T10:11:04.156Z,18.17
2023-02-11T10:14:01.421Z,18.48
2023-02-11T10:16:44.949Z,17.73
2023-02-11T10:19:15.064Z,16.70
2023-02-11T10:21:58.489Z,17.00
2023-02-11T10:24:29.030Z,17.40
2023-02-11T10:26:59.355Z,18.10
2023-02-11T10:29:40.628Z,16.60
2023-02-11T10:32:24.923Z,16.42
2023-02-11T10:34:54.312Z,17.20
2023-02-11T10:37:21.676Z,18.60
2023-02-11T10:39:49.040Z,16.95
2023-02-11T10:42:19.380Z,17.90
2023-02-11T10:45:05.002Z,17.60
2023-02-11T10:47:37.949Z,16.15
2023-02-11T10:50:40.521Z,16.15
2023-02-11T10:55:52.423Z,15.82
2023-02-11T10:58:26.368Z,16.30
2023-02-11T11:00:58.976Z,17.73
2023-02-11T11:03:31.254Z,16.88
2023-02-11T11:06:01.238Z,17.33
2023-02-11T11:08:40.401Z,17.90
2023-02-11T11:11:13.867Z,20.23
2023-02-11T11:13:54.185Z,19.15
2023-02-11T11:16:27.104Z,19.45
2023-02-11T11:19:07.645Z,19.65
2023-02-11T11:21:43.094Z,18.40
2023-02-11T11:24:40.069Z,17.45
2023-02-11T11:27:16.694Z,16.52
2023-02-11T11:29:51.353Z,17.88
2023-02-11T11:32:33.586Z,17.00
2023-02-11T11:35:10.061Z,16.60
2023-02-11T11:37:39.165Z,16.17
2023-02-11T11:40:22.623Z,16.92
2023-02-11T11:43:07.347Z,18.08
2023-02-11T11:45:34.787Z,17.92
2023-02-11T11:48:14.070Z,18.42
2023-02-11T11:50:45.286Z,17.23
2023-02-11T11:53:20.785Z,18.00
2023-02-11T11:56:00.206Z,17.92
2023-02-11T11:58:29.006Z,17.88
2023-02-11T12:01:08.285Z,18.30
2023-02-11T12:04:23.353Z,18.83
2023-02-11T12:07:25.745Z,19.08
2023-02-11T12:09:58.905Z,17.42
2023-02-11T12:13:05.951Z,18.67
2023-02-11T12:15:44.501Z,19.15
2023-02-11T12:18:45.584Z,19.58
2023-02-11T12:21:33.284Z,18.15
2023-02-11T12:24:30.086Z,22.73
2023-02-11T12:27:13.231Z,19.55
2023-02-11T12:29:55.004Z,19.67
2023-02-11T12:32:40.836Z,18.10
2023-02-11T12:35:32.704Z,18.58
2023-02-11T12:38:19.053Z,17.92
2023-02-11T12:40:59.076Z,18.27
2023-02-11T12:43:38.406Z,18.13
2023-02-11T12:46:30.126Z,18.70
2023-02-11T12:49:20.289Z,17.58
2023-02-11T12:51:58.293Z,17.48
2023-02-11T12:54:40.623Z,17.60
2023-02-11T12:57:15.063Z,18.92
2023-02-11T12:59:50.053Z,17.17
2023-02-11T13:02:41.492Z,19.52
2023-02-11T13:05:27.082Z,17.97
2023-02-11T13:08:02.961Z,19.27
2023-02-11T13:10:43.071Z,18.15
2023-02-11T13:13:37.224Z,17.48
2023-02-11T13:16:20.357Z,16.00
2023-02-11T13:19:06.606Z,16.98
2023-02-11T13:21:43.976Z,16.88
2023-02-11T13:24:19.790Z,15.23
2023-02-11T13:27:20.945Z,15.05
2023-02-11T13:30:11.504Z,15.73
2023-02-11T13:32:54.009Z,14.23
2023-02-11T13:35:39.635Z,12.63
2023-02-11T13:38:28.373Z,13.85
2023-02-11T13:41:04.430Z,11.68
2023-02-11T13:43:34.300Z,7.72
2023-02-11T13:46:11.820Z,6.38
2023-02-11T13:48:46.668Z,6.57
2023-02-11T13:51:17.825Z,6.90
2023-02-11T13:53:53.460Z,8.88
2023-02-11T13:56:31.501Z,9.15
2023-02-11T13:59:02.294Z,9.13
2023-02-11T14:02:06.896Z,9.65
2023-02-11T14:04:53.189Z,9.18
2023-02-11T14:07:49.269Z,9.52
2023-02-11T14:10:41.596Z,8.63
2023-02-11T14:16:36.460Z,9.73
2023-02-11T14:19:06.207Z,10.68
2023-02-11T14:21:41.477Z,9.93
2023-02-11T14:24:15.640Z,10.27
2023-02-11T14:27:04.957Z,11.70
2023-02-11T14:29:51.004Z,10.60
2023-02-11T14:32:49.160Z,10.15
2023-02-11T14:35:39.447Z,11.52
2023-02-11T14:38:43.699Z,10.23
2023-02-11T14:41:19.606Z,12.80
2023-02-11T14:43:51.599Z,12.10
2023-02-11T14:46:24.278Z,14.20
2023-02-11T14:48:55.334Z,14.30
2023-02-11T14:51:31.296Z,14.32
2023-02-11T14:54:23.526Z,13.63
2023-02-11T14:57:17.213Z,15.23
2023-02-11T15:00:05.691Z,15.27
2023-02-11T15:02:36.980Z,15.60
2023-02-11T15:05:17.336Z,15.73
2023-02-11T15:07:56.999Z,16.33
2023-02-11T15:10:35.273Z,17.45
2023-02-11T15:13:04.760Z,17.05
2023-02-11T15:15:33.038Z,14.95
2023-02-11T15:18:03.309Z,15.63
2023-02-11T15:20:33.596Z,15.77
2023-02-11T15:23:04.169Z,15.57
2023-02-11T15:25:34.033Z,17.27
2023-02-11T15:28:28.881Z,17.60
2023-02-11T15:30:58.867Z,18.55
2023-02-11T15:33:26.384Z,18.90
2023-02-11T15:35:53.745Z,16.23
2023-02-11T15:38:21.049Z,17.08
2023-02-11T15:41:00.852Z,16.67
2023-02-11T15:43:46.278Z,18.20
2023-02-11T15:46:39.807Z,19.60
2023-02-11T15:49:19.164Z,19.88
2023-02-11T15:51:47.118Z,19.42
2023-02-11T15:54:30.001Z,19.77
2023-02-11T15:57:07.527Z,19.25
2023-02-11T15:59:41.592Z,21.10
2023-02-11T16:02:25.673Z,23.83
2023-02-11T16:04:58.904Z,22.58
2023-02-11T16:07:38.529Z,23.77
2023-02-11T16:10:29.943Z,23.83
2023-02-11T16:13:06.435Z,23.83
2023-02-11T16:15:33.899Z,24.77
2023-02-11T16:18:12.783Z,23.25
2023-02-11T16:20:41.980Z,23.80
2023-02-11T16:23:22.018Z,25.15
2023-02-11T16:25:54.845Z,24.35
2023-02-11T16:28:22.397Z,24.23
2023-02-11T16:30:54.178Z,25.02
2023-02-11T16:35:49.374Z,24.20
2023-02-11T16:38:19.577Z,22.95
2023-02-11T16:40:49.350Z,20.60
2023-02-11T16:43:20.281Z,20.92
2023-02-11T16:45:48.229Z,21.90
2023-02-11T16:48:19.208Z,20.23
2023-02-11T16:50:52.224Z,21.27
2023-02-11T16:53:24.188Z,19.90
2023-02-11T16:55:54.219Z,20.23
2023-02-11T16:58:21.676Z,22.40
2023-02-11T17:00:49.651Z,20.40
2023-02-11T17:03:26.145Z,21.42
2023-02-11T17:05:55.932Z,19.05
2023-02-11T17:08:23.540Z,21.27
2023-02-11T17:10:51.184Z,19.10
2023-02-11T17:13:18.879Z,20.05
2023-02-11T17:15:46.258Z,23.38
2023-02-11T17:18:16.897Z,21.88
2023-02-11T17:20:44.288Z,23.30
2023-02-11T17:23:11.666Z,19.58
2023-02-11T17:25:39.023Z,21.20
2023-02-11T17:28:08.248Z,25.17
2023-02-11T17:30:35.787Z,22.55
2023-02-11T17:33:03.147Z,24.08
2023-02-11T17:35:30.478Z,23.77
2023-02-11T17:37:58.721Z,20.38
2023-02-11T17:40:26.404Z,21.30
2023-02-11T17:42:53.779Z,19.98
2023-02-11T17:45:22.469Z,20.02
2023-02-11T17:47:49.956Z,19.70
2023-02-11T17:50:17.467Z,19.13
2023-02-11T17:52:45.035Z,19.15
2023-02-11T17:55:12.392Z,19.67
2023-02-11T17:57:40.451Z,20.50
2023-02-11T18:00:09.515Z,20.50
2023-02-11T18:02:45.366Z,24.67
2023-02-11T18:05:12.709Z,20.02
2023-02-11T18:07:40.431Z,23.77
2023-02-11T18:10:08.720Z,22.40
2023-02-11T18:12:36.177Z,20.92
2023-02-11T18:15:03.626Z,20.85
2023-02-11T18:17:31.067Z,23.13
2023-02-11T18:19:58.777Z,21.63
2023-02-11T18:22:26.747Z,25.92
2023-02-11T18:24:55.113Z,20.35
2023-02-11T18:27:22.578Z,20.00
2023-02-11T18:29:50.263Z,20.38
2023-02-11T18:32:17.610Z,22.08
2023-02-11T18:34:44.893Z,18.15
2023-02-11T18:37:14.299Z,18.98
2023-02-11T18:39:42.349Z,18.20
2023-02-11T18:42:10.327Z,19.50
2023-02-11T18:44:37.703Z,18.52
2023-02-11T18:47:05.079Z,22.98
2023-02-11T18:49:36.199Z,22.15
2023-02-11T18:52:03.935Z,22.25
2023-02-11T18:54:31.288Z,23.83
2023-02-11T18:56:58.672Z,20.77
2023-02-11T18:59:25.997Z,19.35
2023-02-11T19:01:53.344Z,19.63
2023-02-11T19:04:23.341Z,20.05
2023-02-11T19:06:50.933Z,23.33
2023-02-11T19:09:19.982Z,24.55
2023-02-11T19:11:47.963Z,23.77
2023-02-11T19:14:18.364Z,22.35
2023-02-11T19:16:46.425Z,21.95
2023-02-11T19:19:14.167Z,21.95
2023-02-11T19:21:43.780Z,21.75
2023-02-11T19:24:12.823Z,21.23
2023-02-11T19:26:40.178Z,20.73
2023-02-11T19:29:07.797Z,21.73
2023-02-11T19:31:35.369Z,21.65
2023-02-11T19:34:03.455Z,22.10
2023-02-11T19:36:31.030Z,26.85
2023-02-11T19:39:02.117Z,22.77
2023-02-11T19:41:30.652Z,23.30
2023-02-11T19:43:58.037Z,26.40
2023-02-11T19:46:28.115Z,25.92
2023-02-11T19:48:55.611Z,21.90
2023-02-11T19:51:22.955Z,23.50
2023-02-11T19:53:51.275Z,25.33
2023-02-11T19:56:20.827Z,22.60
2023-02-11T19:58:48.324Z,22.20
2023-02-11T20:01:18.901Z,21.42
2023-02-11T20:03:49.979Z,22.35
2023-02-11T20:06:23.278Z,25.20
2023-02-11T20:08:59.110Z,25.08
2023-02-11T20:11:28.880Z,23.25
2023-02-11T20:13:57.282Z,22.92
2023-02-11T20:16:44.570Z,20.88
2023-02-11T20:19:17.818Z,23.38
2023-02-11T20:21:47.560Z,23.65
2023-02-11T20:24:17.472Z,29.33
2023-02-11T20:26:46.914Z,28.75
2023-02-11T20:29:15.930Z,28.58
2023-02-11T20:31:43.577Z,29.75
2023-02-11T20:34:12.123Z,28.73
2023-02-11T20:36:40.635Z,29.30
2023-02-11T20:39:08.987Z,27.02
2023-02-11T20:41:39.857Z,29.33
2023-02-11T20:44:09.979Z,30.35
2023-02-11T20:46:40.332Z,30.77
2023-02-11T20:49:08.810Z,29.13
2023-02-11T20:51:37.351Z,31.25
2023-02-11T20:54:06.332Z,32.13
2023-02-11T20:56:36.814Z,35.42
2023-02-11T20:59:05.829Z,34.88
2023-02-11T21:01:42.474Z,32.90
2023-02-11T21:04:13.182Z,28.85
2023-02-11T21:06:45.377Z,31.55
2023-02-11T21:09:22.072Z,32.38
2023-02-11T21:11:51.603Z,31.92
2023-02-11T21:14:19.970Z,33.30
2023-02-11T21:16:48.181Z,32.95
2023-02-11T21:19:18.497Z,33.22
2023-02-11T21:21:45.927Z,31.50
2023-02-11T21:24:13.389Z,34.25
2023-02-11T21:26:40.898Z,32.05
2023-02-11T21:29:08.714Z,33.80
2023-02-11T21:31:37.849Z,33.80
2023-02-11T21:34:06.362Z,34.25
2023-02-11T21:36:34.148Z,34.05
2023-02-11T21:39:03.816Z,31.95
2023-02-11T21:41:31.295Z,32.30
2023-02-11T21:43:58.603Z,31.98
2023-02-11T21:46:28.990Z,33.28
2023-02-11T21:48:57.412Z,33.03
2023-02-11T21:51:26.248Z,34.08
2023-02-11T21:53:59.244Z,34.17
2023-02-11T21:56:28.228Z,32.05
2023-02-11T21:58:57.606Z,33.17
2023-02-11T22:01:30.965Z,32.70
2023-02-11T22:03:58.898Z,32.45
2023-02-11T22:06:31.080Z,32.15
2023-02-11T22:09:01.585Z,32.88
2023-02-11T22:11:31.616Z,34.70
2023-02-11T22:13:59.291Z,33.97
2023-02-11T22:16:27.669Z,35.20
2023-02-11T22:18:58.374Z,35.13
2023-02-11T22:21:25.988Z,33.75
2023-02-11T22:23:54.591Z,36.33
2023-02-11T22:26:23.727Z,35.83
2023-02-11T22:28:52.021Z,36.97
2023-02-11T22:31:22.359Z,35.13
2023-02-11T22:33:50.065Z,34.80
2023-02-11T22:36:26.948Z,34.85
2023-02-11T22:38:54.949Z,36.75
2023-02-11T22:41:23.199Z,36.92
2023-02-11T22:43:50.534Z,34.83
2023-02-11T22:46:19.586Z,36.63
2023-02-11T22:48:48.962Z,37.90
2023-02-11T22:51:19.760Z,30.95
2023-02-11T22:53:57.216Z,36.40
2023-02-11T22:56:24.899Z,29.00
2023-02-11T22:58:55.764Z,29.20
2023-02-11T23:01:23.271Z,27.70
2023-02-11T23:03:50.680Z,34.63
2023-02-11T23:06:18.180Z,34.40
2023-02-11T23:08:46.420Z,31.05
2023-02-11T23:11:20.197Z,27.55
2023-02-11T23:13:49.773Z,33.60
2023-02-11T23:16:19.650Z,36.78
2023-02-11T23:18:48.439Z,34.92
2023-02-11T23:21:22.177Z,33.83
2023-02-11T23:23:53.742Z,25.23
2023-02-11T23:26:21.238Z,24.88
2023-02-11T23:28:48.603Z,29.25
2023-02-11T23:31:23.681Z,23.85
2023-02-11T23:33:51.615Z,23.20
2023-02-11T23:36:21.091Z,29.13
2023-02-11T23:38:48.900Z,27.35
2023-02-11T23:41:17.145Z,24.33
2023-02-11T23:43:44.585Z,31.13
2023-02-11T23:46:12.032Z,27.58
2023-02-11T23:48:41.315Z,29.00
2023-02-11T23:51:11.665Z,29.40
2023-02-11T23:53:39.538Z,29.27
2023-02-11T23:56:13.988Z,27.02
2023-02-11T23:58:41.382Z,23.35
